sensor_id;sensor_type;location;lat;lon;timestamp;pressure;altitude;pressure_sealevel;temperature;humidity
20930;BME280;21895;47.072;15.132;2023-06-22T00:00:02;97076.00;;;20.89;85.74
20930;BME280;21895;47.072;15.132;2023-06-22T00:02:35;97076.00;;;20.87;85.21
20930;BME280;21895;47.072;15.132;2023-06-22T00:05:01;97071.00;;;20.81;85.38
20930;BME280;21895;47.072;15.132;2023-06-22T00:07:28;97070.00;;;20.73;85.49
20930;BME280;21895;47.072;15.132;2023-06-22T00:09:54;97070.00;;;20.68;86.07
20930;BME280;21895;47.072;15.132;2023-06-22T00:12:21;97084.00;;;20.68;86.19
20930;BME280;21895;47.072;15.132;2023-06-22T00:14:47;97079.00;;;20.65;86.81
20930;BME280;21895;47.072;15.132;2023-06-22T00:17:14;97075.00;;;20.80;85.53
20930;BME280;21895;47.072;15.132;2023-06-22T00:19:40;97077.00;;;20.88;85.22
20930;BME280;21895;47.072;15.132;2023-06-22T00:22:07;97077.00;;;21.04;83.38
20930;BME280;21895;47.072;15.132;2023-06-22T00:24:34;97077.00;;;20.98;83.07
20930;BME280;21895;47.072;15.132;2023-06-22T00:27:00;97074.00;;;20.86;84.79
20930;BME280;21895;47.072;15.132;2023-06-22T00:29:27;97081.00;;;20.73;86.14
20930;BME280;21895;47.072;15.132;2023-06-22T00:31:53;97073.00;;;21.18;83.14
20930;BME280;21895;47.072;15.132;2023-06-22T00:34:20;97078.00;;;20.94;84.73
20930;BME280;21895;47.072;15.132;2023-06-22T00:36:46;97077.00;;;20.81;85.39
20930;BME280;21895;47.072;15.132;2023-06-22T00:39:13;97075.00;;;20.97;84.52
20930;BME280;21895;47.072;15.132;2023-06-22T00:41:40;97063.00;;;20.81;84.80
20930;BME280;21895;47.072;15.132;2023-06-22T00:44:06;97070.00;;;20.77;85.05
20930;BME280;21895;47.072;15.132;2023-06-22T00:46:34;97079.00;;;20.66;85.16
20930;BME280;21895;47.072;15.132;2023-06-22T00:49:01;97072.00;;;20.65;85.26
20930;BME280;21895;47.072;15.132;2023-06-22T00:51:28;97083.00;;;20.53;85.49
20930;BME280;21895;47.072;15.132;2023-06-22T00:53:54;97069.00;;;20.56;85.46
20930;BME280;21895;47.072;15.132;2023-06-22T00:56:23;97073.00;;;20.82;83.28
20930;BME280;21895;47.072;15.132;2023-06-22T00:58:51;97063.00;;;20.78;83.25
20930;BME280;21895;47.072;15.132;2023-06-22T01:01:19;97067.00;;;20.61;83.71
20930;BME280;21895;47.072;15.132;2023-06-22T01:03:50;97071.00;;;20.59;83.64
20930;BME280;21895;47.072;15.132;2023-06-22T01:06:29;97062.00;;;20.51;83.75
20930;BME280;21895;47.072;15.132;2023-06-22T01:09:23;97061.00;;;20.52;83.78
20930;BME280;21895;47.072;15.132;2023-06-22T01:11:58;97063.00;;;20.48;83.41
20930;BME280;21895;47.072;15.132;2023-06-22T01:14:56;97070.00;;;20.44;83.05
20930;BME280;21895;47.072;15.132;2023-06-22T01:17:26;97061.00;;;20.35;83.70
20930;BME280;21895;47.072;15.132;2023-06-22T01:19:58;97060.00;;;20.19;84.29
20930;BME280;21895;47.072;15.132;2023-06-22T01:22:33;97070.00;;;20.29;83.50
20930;BME280;21895;47.072;15.132;2023-06-22T01:25:19;97064.00;;;20.18;83.93
20930;BME280;21895;47.072;15.132;2023-06-22T01:28:47;97067.00;;;20.13;84.31
20930;BME280;21895;47.072;15.132;2023-06-22T01:31:18;97074.00;;;20.33;83.15
20930;BME280;21895;47.072;15.132;2023-06-22T01:33:51;97078.00;;;19.94;84.64
20930;BME280;21895;47.072;15.132;2023-06-22T01:36:20;97068.00;;;19.95;85.36
20930;BME280;21895;47.072;15.132;2023-06-22T01:38:49;97066.00;;;19.85;85.77
20930;BME280;21895;47.072;15.132;2023-06-22T01:41:17;97065.00;;;19.91;85.84
20930;BME280;21895;47.072;15.132;2023-06-22T01:43:45;97071.00;;;19.93;85.47
20930;BME280;21895;47.072;15.132;2023-06-22T01:46:13;97067.00;;;19.86;85.83
20930;BME280;21895;47.072;15.132;2023-06-22T01:48:41;97076.00;;;19.99;84.69
20930;BME280;21895;47.072;15.132;2023-06-22T01:51:07;97072.00;;;19.79;85.45
20930;BME280;21895;47.072;15.132;2023-06-22T01:53:34;97076.00;;;19.75;86.25
20930;BME280;21895;47.072;15.132;2023-06-22T01:56:01;97069.00;;;19.94;85.36
20930;BME280;21895;47.072;15.132;2023-06-22T01:58:30;97075.00;;;20.00;84.62
20930;BME280;21895;47.072;15.132;2023-06-22T02:01:11;97074.00;;;19.97;84.04
20930;BME280;21895;47.072;15.132;2023-06-22T02:05:17;97070.00;;;20.07;83.61
20930;BME280;21895;47.072;15.132;2023-06-22T02:08:00;97070.00;;;19.62;86.14
20930;BME280;21895;47.072;15.132;2023-06-22T02:10:29;97076.00;;;19.69;85.64
20930;BME280;21895;47.072;15.132;2023-06-22T02:12:58;97082.00;;;19.85;84.84
20930;BME280;21895;47.072;15.132;2023-06-22T02:15:26;97077.00;;;19.82;84.87
20930;BME280;21895;47.072;15.132;2023-06-22T02:17:56;97083.00;;;19.76;84.92
20930;BME280;21895;47.072;15.132;2023-06-22T02:20:24;97080.00;;;19.74;85.04
20930;BME280;21895;47.072;15.132;2023-06-22T02:22:50;97081.00;;;19.69;85.16
20930;BME280;21895;47.072;15.132;2023-06-22T02:25:17;97076.00;;;19.68;84.86
20930;BME280;21895;47.072;15.132;2023-06-22T02:27:45;97071.00;;;19.66;84.86
20930;BME280;21895;47.072;15.132;2023-06-22T02:30:12;97080.00;;;19.62;85.31
20930;BME280;21895;47.072;15.132;2023-06-22T02:32:41;97079.00;;;19.60;85.08
20930;BME280;21895;47.072;15.132;2023-06-22T02:35:10;97091.00;;;19.45;85.79
20930;BME280;21895;47.072;15.132;2023-06-22T02:37:38;97091.00;;;19.47;85.97
20930;BME280;21895;47.072;15.132;2023-06-22T02:40:08;97089.00;;;19.59;84.81
20930;BME280;21895;47.072;15.132;2023-06-22T02:42:36;97093.00;;;19.61;84.63
20930;BME280;21895;47.072;15.132;2023-06-22T02:45:03;97104.00;;;19.50;85.23
20930;BME280;21895;47.072;15.132;2023-06-22T02:47:30;97098.00;;;19.58;84.43
20930;BME280;21895;47.072;15.132;2023-06-22T02:49:57;97105.00;;;19.47;85.22
20930;BME280;21895;47.072;15.132;2023-06-22T02:52:24;97096.00;;;19.72;84.10
20930;BME280;21895;47.072;15.132;2023-06-22T02:54:50;97095.00;;;19.68;83.60
20930;BME280;21895;47.072;15.132;2023-06-22T02:57:17;97099.00;;;19.76;83.33
20930;BME280;21895;47.072;15.132;2023-06-22T02:59:43;97106.00;;;19.76;83.63
20930;BME280;21895;47.072;15.132;2023-06-22T03:02:10;97100.00;;;19.66;84.19
20930;BME280;21895;47.072;15.132;2023-06-22T03:04:37;97099.00;;;19.62;84.26
20930;BME280;21895;47.072;15.132;2023-06-22T03:07:04;97096.00;;;19.72;83.66
20930;BME280;21895;47.072;15.132;2023-06-22T03:09:32;97097.00;;;19.88;82.60
20930;BME280;21895;47.072;15.132;2023-06-22T03:11:59;97104.00;;;19.66;83.08
20930;BME280;21895;47.072;15.132;2023-06-22T03:14:25;97103.00;;;19.64;83.05
20930;BME280;21895;47.072;15.132;2023-06-22T03:16:52;97108.00;;;19.57;83.45
20930;BME280;21895;47.072;15.132;2023-06-22T03:19:19;97096.00;;;19.46;84.17
20930;BME280;21895;47.072;15.132;2023-06-22T03:21:47;97092.00;;;19.46;84.32
20930;BME280;21895;47.072;15.132;2023-06-22T03:24:14;97091.00;;;19.62;83.74
20930;BME280;21895;47.072;15.132;2023-06-22T03:26:40;97090.00;;;19.80;82.62
20930;BME280;21895;47.072;15.132;2023-06-22T03:29:07;97096.00;;;19.77;82.51
20930;BME280;21895;47.072;15.132;2023-06-22T03:31:33;97109.00;;;19.75;83.09
20930;BME280;21895;47.072;15.132;2023-06-22T03:34:00;97109.00;;;19.75;82.40
20930;BME280;21895;47.072;15.132;2023-06-22T03:36:27;97110.00;;;19.68;82.39
20930;BME280;21895;47.072;15.132;2023-06-22T03:38:53;97105.00;;;20.00;80.81
20930;BME280;21895;47.072;15.132;2023-06-22T03:41:20;97094.00;;;19.96;80.94
20930;BME280;21895;47.072;15.132;2023-06-22T03:43:46;97100.00;;;19.96;81.04
20930;BME280;21895;47.072;15.132;2023-06-22T03:46:13;97107.00;;;20.01;81.12
20930;BME280;21895;47.072;15.132;2023-06-22T03:48:40;97110.00;;;20.20;79.83
20930;BME280;21895;47.072;15.132;2023-06-22T03:51:07;97104.00;;;20.19;79.80
20930;BME280;21895;47.072;15.132;2023-06-22T03:53:33;97109.00;;;20.02;80.29
20930;BME280;21895;47.072;15.132;2023-06-22T03:56:00;97111.00;;;20.05;80.35
20930;BME280;21895;47.072;15.132;2023-06-22T03:58:26;97105.00;;;20.14;80.47
20930;BME280;21895;47.072;15.132;2023-06-22T04:00:58;97108.00;;;20.53;78.24
20930;BME280;21895;47.072;15.132;2023-06-22T04:03:26;97112.00;;;20.45;78.13
20930;BME280;21895;47.072;15.132;2023-06-22T04:05:52;97105.00;;;20.30;79.22
20930;BME280;21895;47.072;15.132;2023-06-22T04:08:20;97103.00;;;20.39;79.19
20930;BME280;21895;47.072;15.132;2023-06-22T04:10:46;97102.00;;;20.58;77.82
20930;BME280;21895;47.072;15.132;2023-06-22T04:13:13;97099.00;;;20.49;78.42
20930;BME280;21895;47.072;15.132;2023-06-22T04:15:39;97095.00;;;20.46;78.42
20930;BME280;21895;47.072;15.132;2023-06-22T04:18:06;97102.00;;;20.63;77.98
20930;BME280;21895;47.072;15.132;2023-06-22T04:20:32;97095.00;;;20.72;77.46
20930;BME280;21895;47.072;15.132;2023-06-22T04:23:00;97102.00;;;20.80;77.06
20930;BME280;21895;47.072;15.132;2023-06-22T04:25:26;97100.00;;;20.73;77.36
20930;BME280;21895;47.072;15.132;2023-06-22T04:27:53;97100.00;;;20.85;76.31
20930;BME280;21895;47.072;15.132;2023-06-22T04:30:20;97098.00;;;20.93;76.36
20930;BME280;21895;47.072;15.132;2023-06-22T04:32:46;97100.00;;;21.09;76.39
20930;BME280;21895;47.072;15.132;2023-06-22T04:35:23;97109.00;;;21.43;73.46
20930;BME280;21895;47.072;15.132;2023-06-22T04:37:50;97109.00;;;21.41;73.67
20930;BME280;21895;47.072;15.132;2023-06-22T04:40:24;97113.00;;;21.45;73.46
20930;BME280;21895;47.072;15.132;2023-06-22T04:42:50;97105.00;;;21.61;73.53
20930;BME280;21895;47.072;15.132;2023-06-22T04:45:20;97103.00;;;21.70;72.36
20930;BME280;21895;47.072;15.132;2023-06-22T04:47:47;97101.00;;;21.82;71.88
20930;BME280;21895;47.072;15.132;2023-06-22T04:50:14;97103.00;;;22.16;70.17
20930;BME280;21895;47.072;15.132;2023-06-22T04:52:41;97101.00;;;22.42;69.18
20930;BME280;21895;47.072;15.132;2023-06-22T04:55:08;97105.00;;;22.86;68.12
20930;BME280;21895;47.072;15.132;2023-06-22T04:57:35;97094.00;;;23.73;65.06
20930;BME280;21895;47.072;15.132;2023-06-22T05:00:02;97096.00;;;24.70;61.40
20930;BME280;21895;47.072;15.132;2023-06-22T05:03:29;97089.00;;;25.20;59.46
20930;BME280;21895;47.072;15.132;2023-06-22T05:05:56;97086.00;;;25.62;58.05
20930;BME280;21895;47.072;15.132;2023-06-22T05:08:23;97085.00;;;25.79;57.38
20930;BME280;21895;47.072;15.132;2023-06-22T05:10:52;97084.00;;;25.40;58.33
20930;BME280;21895;47.072;15.132;2023-06-22T05:13:32;97077.00;;;25.21;59.64
20930;BME280;21895;47.072;15.132;2023-06-22T05:15:58;97076.00;;;25.28;59.23
20930;BME280;21895;47.072;15.132;2023-06-22T05:18:31;97070.00;;;25.62;58.06
20930;BME280;21895;47.072;15.132;2023-06-22T05:20:59;97075.00;;;25.41;58.27
20930;BME280;21895;47.072;15.132;2023-06-22T05:23:25;97068.00;;;25.30;59.34
20930;BME280;21895;47.072;15.132;2023-06-22T05:25:52;97076.00;;;25.45;59.38
20930;BME280;21895;47.072;15.132;2023-06-22T05:28:19;97068.00;;;25.68;58.73
20930;BME280;21895;47.072;15.132;2023-06-22T05:30:49;97066.00;;;25.60;58.82
20930;BME280;21895;47.072;15.132;2023-06-22T05:33:15;97063.00;;;25.68;58.07
20930;BME280;21895;47.072;15.132;2023-06-22T05:35:42;97063.00;;;25.58;58.65
20930;BME280;21895;47.072;15.132;2023-06-22T05:38:08;97060.00;;;25.91;57.68
20930;BME280;21895;47.072;15.132;2023-06-22T05:40:35;97061.00;;;25.88;57.72
20930;BME280;21895;47.072;15.132;2023-06-22T05:43:02;97060.00;;;25.89;57.41
20930;BME280;21895;47.072;15.132;2023-06-22T05:45:28;97058.00;;;25.91;57.44
20930;BME280;21895;47.072;15.132;2023-06-22T05:47:55;97053.00;;;26.10;56.83
20930;BME280;21895;47.072;15.132;2023-06-22T05:50:21;97054.00;;;26.21;57.21
20930;BME280;21895;47.072;15.132;2023-06-22T05:52:48;97054.00;;;26.49;56.41
20930;BME280;21895;47.072;15.132;2023-06-22T05:55:14;97055.00;;;26.39;56.68
20930;BME280;21895;47.072;15.132;2023-06-22T05:57:42;97049.00;;;26.81;55.57
20930;BME280;21895;47.072;15.132;2023-06-22T06:00:09;97046.00;;;26.65;57.09
20930;BME280;21895;47.072;15.132;2023-06-22T06:02:37;97043.00;;;27.13;55.07
20930;BME280;21895;47.072;15.132;2023-06-22T06:05:12;97046.00;;;27.23;55.96
20930;BME280;21895;47.072;15.132;2023-06-22T06:07:43;97044.00;;;27.39;56.35
20930;BME280;21895;47.072;15.132;2023-06-22T06:10:10;97037.00;;;27.46;56.31
20930;BME280;21895;47.072;15.132;2023-06-22T06:12:36;97039.00;;;27.56;56.36
20930;BME280;21895;47.072;15.132;2023-06-22T06:15:04;97031.00;;;27.51;57.63
20930;BME280;21895;47.072;15.132;2023-06-22T06:17:31;97030.00;;;27.54;56.70
20930;BME280;21895;47.072;15.132;2023-06-22T06:19:59;97031.00;;;27.84;57.60
20930;BME280;21895;47.072;15.132;2023-06-22T06:22:26;97031.00;;;27.82;56.81
20930;BME280;21895;47.072;15.132;2023-06-22T06:24:53;97035.00;;;28.09;55.48
20930;BME280;21895;47.072;15.132;2023-06-22T06:27:19;97022.00;;;28.24;53.66
20930;BME280;21895;47.072;15.132;2023-06-22T06:29:46;97021.00;;;28.41;54.12
20930;BME280;21895;47.072;15.132;2023-06-22T06:32:14;97022.00;;;28.45;54.95
20930;BME280;21895;47.072;15.132;2023-06-22T06:34:41;97011.00;;;28.69;53.92
20930;BME280;21895;47.072;15.132;2023-06-22T06:37:07;97020.00;;;28.89;53.09
20930;BME280;21895;47.072;15.132;2023-06-22T06:39:34;97008.00;;;28.86;54.12
20930;BME280;21895;47.072;15.132;2023-06-22T06:42:00;97014.00;;;28.85;55.82
20930;BME280;21895;47.072;15.132;2023-06-22T06:44:27;97011.00;;;28.92;56.46
20930;BME280;21895;47.072;15.132;2023-06-22T06:46:54;97010.00;;;29.10;55.95
20930;BME280;21895;47.072;15.132;2023-06-22T06:49:20;97003.00;;;29.22;52.55
20930;BME280;21895;47.072;15.132;2023-06-22T06:51:47;97006.00;;;29.41;53.52
20930;BME280;21895;47.072;15.132;2023-06-22T06:54:13;97012.00;;;29.36;55.44
20930;BME280;21895;47.072;15.132;2023-06-22T06:56:40;97005.00;;;29.56;55.34
20930;BME280;21895;47.072;15.132;2023-06-22T06:59:06;97000.00;;;29.83;53.52
20930;BME280;21895;47.072;15.132;2023-06-22T07:01:33;97006.00;;;29.88;53.18
20930;BME280;21895;47.072;15.132;2023-06-22T07:04:02;97005.00;;;29.95;52.19
20930;BME280;21895;47.072;15.132;2023-06-22T07:06:28;97007.00;;;30.28;52.41
20930;BME280;21895;47.072;15.132;2023-06-22T07:08:58;97009.00;;;30.18;50.92
20930;BME280;21895;47.072;15.132;2023-06-22T07:11:24;97006.00;;;30.15;50.93
20930;BME280;21895;47.072;15.132;2023-06-22T07:13:51;97008.00;;;30.42;51.16
20930;BME280;21895;47.072;15.132;2023-06-22T07:16:18;97006.00;;;30.69;50.55
20930;BME280;21895;47.072;15.132;2023-06-22T07:18:44;97008.00;;;30.83;50.02
20930;BME280;21895;47.072;15.132;2023-06-22T07:21:11;97010.00;;;30.99;49.57
20930;BME280;21895;47.072;15.132;2023-06-22T07:23:37;97006.00;;;30.85;49.99
20930;BME280;21895;47.072;15.132;2023-06-22T07:26:04;97002.00;;;31.01;50.21
20930;BME280;21895;47.072;15.132;2023-06-22T07:28:32;97005.00;;;31.19;48.87
20930;BME280;21895;47.072;15.132;2023-06-22T07:31:03;97004.00;;;31.12;49.94
20930;BME280;21895;47.072;15.132;2023-06-22T07:33:30;97003.00;;;31.13;50.18
20930;BME280;21895;47.072;15.132;2023-06-22T07:35:57;96997.00;;;31.00;51.04
20930;BME280;21895;47.072;15.132;2023-06-22T07:38:24;96998.00;;;31.11;50.02
20930;BME280;21895;47.072;15.132;2023-06-22T07:40:50;96995.00;;;31.39;48.00
20930;BME280;21895;47.072;15.132;2023-06-22T07:43:19;97000.00;;;31.39;49.41
20930;BME280;21895;47.072;15.132;2023-06-22T07:45:50;96999.00;;;31.54;49.01
20930;BME280;21895;47.072;15.132;2023-06-22T07:48:21;97006.00;;;31.60;48.37
20930;BME280;21895;47.072;15.132;2023-06-22T07:50:48;97002.00;;;31.76;47.56
20930;BME280;21895;47.072;15.132;2023-06-22T07:53:15;96998.00;;;31.78;46.76
20930;BME280;21895;47.072;15.132;2023-06-22T07:55:42;97004.00;;;31.80;48.16
20930;BME280;21895;47.072;15.132;2023-06-22T07:58:08;97002.00;;;31.95;47.39
20930;BME280;21895;47.072;15.132;2023-06-22T08:00:35;96999.00;;;32.11;47.26
20930;BME280;21895;47.072;15.132;2023-06-22T08:03:02;96995.00;;;32.15;46.89
20930;BME280;21895;47.072;15.132;2023-06-22T08:05:31;96992.00;;;32.26;47.74
20930;BME280;21895;47.072;15.132;2023-06-22T08:07:58;96990.00;;;32.28;45.62
20930;BME280;21895;47.072;15.132;2023-06-22T08:10:25;96991.00;;;32.42;44.71
20930;BME280;21895;47.072;15.132;2023-06-22T08:12:52;96990.00;;;32.49;44.96
20930;BME280;21895;47.072;15.132;2023-06-22T08:15:19;96990.00;;;32.28;46.41
20930;BME280;21895;47.072;15.132;2023-06-22T08:17:45;96991.00;;;32.18;46.95
20930;BME280;21895;47.072;15.132;2023-06-22T08:20:12;96993.00;;;32.72;45.05
20930;BME280;21895;47.072;15.132;2023-06-22T08:22:43;96990.00;;;32.74;44.47
20930;BME280;21895;47.072;15.132;2023-06-22T08:25:10;96990.00;;;32.67;42.32
20930;BME280;21895;47.072;15.132;2023-06-22T08:27:37;96989.00;;;32.43;43.39
20930;BME280;21895;47.072;15.132;2023-06-22T08:30:05;96988.00;;;32.37;43.83
20930;BME280;21895;47.072;15.132;2023-06-22T08:32:32;96983.00;;;32.73;44.51
20930;BME280;21895;47.072;15.132;2023-06-22T08:34:59;96992.00;;;33.03;41.93
20930;BME280;21895;47.072;15.132;2023-06-22T08:37:25;96982.00;;;33.00;42.15
20930;BME280;21895;47.072;15.132;2023-06-22T08:39:59;96987.00;;;33.10;41.46
20930;BME280;21895;47.072;15.132;2023-06-22T08:42:26;96986.00;;;33.20;41.53
20930;BME280;21895;47.072;15.132;2023-06-22T08:44:52;96988.00;;;33.11;41.49
20930;BME280;21895;47.072;15.132;2023-06-22T08:47:20;96989.00;;;33.12;41.69
20930;BME280;21895;47.072;15.132;2023-06-22T08:49:47;96984.00;;;33.12;41.92
20930;BME280;21895;47.072;15.132;2023-06-22T08:52:13;96978.00;;;32.97;43.13
20930;BME280;21895;47.072;15.132;2023-06-22T08:54:40;96980.00;;;33.01;43.94
20930;BME280;21895;47.072;15.132;2023-06-22T08:57:06;96976.00;;;33.09;43.92
20930;BME280;21895;47.072;15.132;2023-06-22T08:59:33;96983.00;;;33.34;42.76
20930;BME280;21895;47.072;15.132;2023-06-22T09:01:59;96974.00;;;33.52;41.40
20930;BME280;21895;47.072;15.132;2023-06-22T09:04:26;96973.00;;;33.60;41.53
20930;BME280;21895;47.072;15.132;2023-06-22T09:06:53;96977.00;;;33.61;41.30
20930;BME280;21895;47.072;15.132;2023-06-22T09:09:21;96974.00;;;33.45;41.10
20930;BME280;21895;47.072;15.132;2023-06-22T09:11:48;96977.00;;;33.59;41.81
20930;BME280;21895;47.072;15.132;2023-06-22T09:14:15;96969.00;;;33.59;42.49
20930;BME280;21895;47.072;15.132;2023-06-22T09:16:41;96967.00;;;33.63;41.44
20930;BME280;21895;47.072;15.132;2023-06-22T09:19:08;96970.00;;;33.81;41.74
20930;BME280;21895;47.072;15.132;2023-06-22T09:21:35;96970.00;;;33.60;41.30
20930;BME280;21895;47.072;15.132;2023-06-22T09:24:03;96965.00;;;33.57;42.29
20930;BME280;21895;47.072;15.132;2023-06-22T09:26:29;96959.00;;;33.46;42.00
20930;BME280;21895;47.072;15.132;2023-06-22T09:28:56;96962.00;;;33.30;42.38
20930;BME280;21895;47.072;15.132;2023-06-22T09:31:24;96962.00;;;33.53;43.41
20930;BME280;21895;47.072;15.132;2023-06-22T09:33:54;96951.00;;;33.66;41.64
20930;BME280;21895;47.072;15.132;2023-06-22T09:36:21;96952.00;;;33.85;40.97
20930;BME280;21895;47.072;15.132;2023-06-22T09:38:48;96948.00;;;33.74;42.07
20930;BME280;21895;47.072;15.132;2023-06-22T09:41:18;96948.00;;;33.77;41.44
20930;BME280;21895;47.072;15.132;2023-06-22T09:43:45;96945.00;;;33.51;42.09
20930;BME280;21895;47.072;15.132;2023-06-22T09:46:11;96951.00;;;33.72;43.62
20930;BME280;21895;47.072;15.132;2023-06-22T09:48:38;96947.00;;;33.93;43.07
20930;BME280;21895;47.072;15.132;2023-06-22T09:51:07;96939.00;;;33.97;41.90
20930;BME280;21895;47.072;15.132;2023-06-22T09:53:33;96937.00;;;33.94;41.55
20930;BME280;21895;47.072;15.132;2023-06-22T09:56:03;96935.00;;;34.12;41.24
20930;BME280;21895;47.072;15.132;2023-06-22T09:58:31;96937.00;;;34.16;40.70
20930;BME280;21895;47.072;15.132;2023-06-22T10:00:57;96931.00;;;34.02;42.17
20930;BME280;21895;47.072;15.132;2023-06-22T10:03:24;96935.00;;;34.26;40.98
20930;BME280;21895;47.072;15.132;2023-06-22T10:05:51;96931.00;;;33.99;40.88
20930;BME280;21895;47.072;15.132;2023-06-22T10:08:18;96927.00;;;33.89;42.08
20930;BME280;21895;47.072;15.132;2023-06-22T10:10:44;96923.00;;;33.97;41.87
20930;BME280;21895;47.072;15.132;2023-06-22T10:13:11;96918.00;;;34.15;41.46
20930;BME280;21895;47.072;15.132;2023-06-22T10:15:38;96921.00;;;34.13;42.34
20930;BME280;21895;47.072;15.132;2023-06-22T10:18:05;96915.00;;;34.24;40.83
20930;BME280;21895;47.072;15.132;2023-06-22T10:20:32;96924.00;;;34.19;41.20
20930;BME280;21895;47.072;15.132;2023-06-22T10:22:59;96920.00;;;33.97;41.51
20930;BME280;21895;47.072;15.132;2023-06-22T10:25:26;96911.00;;;34.00;42.15
20930;BME280;21895;47.072;15.132;2023-06-22T10:27:54;96919.00;;;34.18;41.30
20930;BME280;21895;47.072;15.132;2023-06-22T10:30:21;96912.00;;;34.29;40.83
20930;BME280;21895;47.072;15.132;2023-06-22T10:32:47;96919.00;;;34.30;41.07
20930;BME280;21895;47.072;15.132;2023-06-22T10:35:14;96916.00;;;34.40;40.60
20930;BME280;21895;47.072;15.132;2023-06-22T10:37:46;96915.00;;;34.38;39.50
20930;BME280;21895;47.072;15.132;2023-06-22T10:40:14;96913.00;;;34.24;41.64
20930;BME280;21895;47.072;15.132;2023-06-22T10:42:42;96916.00;;;34.29;41.09
20930;BME280;21895;47.072;15.132;2023-06-22T10:45:09;96907.00;;;34.31;41.03
20930;BME280;21895;47.072;15.132;2023-06-22T10:47:36;96909.00;;;34.41;40.10
20930;BME280;21895;47.072;15.132;2023-06-22T10:50:04;96909.00;;;34.36;40.97
20930;BME280;21895;47.072;15.132;2023-06-22T10:52:31;96901.00;;;34.22;41.75
20930;BME280;21895;47.072;15.132;2023-06-22T10:54:58;96903.00;;;34.42;40.23
20930;BME280;21895;47.072;15.132;2023-06-22T10:57:24;96897.00;;;34.26;41.27
20930;BME280;21895;47.072;15.132;2023-06-22T10:59:51;96896.00;;;34.28;40.73
20930;BME280;21895;47.072;15.132;2023-06-22T11:02:17;96899.00;;;34.28;40.49
20930;BME280;21895;47.072;15.132;2023-06-22T11:04:44;96899.00;;;34.42;40.41
20930;BME280;21895;47.072;15.132;2023-06-22T11:07:12;96904.00;;;34.49;41.44
20930;BME280;21895;47.072;15.132;2023-06-22T11:09:38;96894.00;;;34.56;40.72
20930;BME280;21895;47.072;15.132;2023-06-22T11:12:07;96898.00;;;34.48;40.23
20930;BME280;21895;47.072;15.132;2023-06-22T11:14:34;96894.00;;;34.42;40.69
20930;BME280;21895;47.072;15.132;2023-06-22T11:17:00;96892.00;;;34.45;40.78
20930;BME280;21895;47.072;15.132;2023-06-22T11:19:27;96902.00;;;34.38;41.03
20930;BME280;21895;47.072;15.132;2023-06-22T11:21:53;96898.00;;;34.52;40.09
20930;BME280;21895;47.072;15.132;2023-06-22T11:24:20;96889.00;;;34.60;39.87
20930;BME280;21895;47.072;15.132;2023-06-22T11:26:47;96887.00;;;34.73;39.18
20930;BME280;21895;47.072;15.132;2023-06-22T11:29:13;96874.00;;;34.51;40.40
20930;BME280;21895;47.072;15.132;2023-06-22T11:31:58;96876.00;;;34.63;39.76
20930;BME280;21895;47.072;15.132;2023-06-22T11:34:24;96876.00;;;34.65;39.86
20930;BME280;21895;47.072;15.132;2023-06-22T11:36:51;96873.00;;;34.54;40.04
20930;BME280;21895;47.072;15.132;2023-06-22T11:39:18;96877.00;;;34.68;39.18
20930;BME280;21895;47.072;15.132;2023-06-22T11:41:55;96881.00;;;34.59;39.85
20930;BME280;21895;47.072;15.132;2023-06-22T11:44:21;96875.00;;;34.62;40.32
20930;BME280;21895;47.072;15.132;2023-06-22T11:46:48;96870.00;;;34.80;39.47
20930;BME280;21895;47.072;15.132;2023-06-22T11:49:15;96869.00;;;34.73;40.70
20930;BME280;21895;47.072;15.132;2023-06-22T11:51:41;96861.00;;;34.96;39.84
20930;BME280;21895;47.072;15.132;2023-06-22T11:54:08;96850.00;;;34.57;40.49
20930;BME280;21895;47.072;15.132;2023-06-22T11:56:34;96846.00;;;34.56;41.00
20930;BME280;21895;47.072;15.132;2023-06-22T11:59:01;96844.00;;;34.53;40.35
20930;BME280;21895;47.072;15.132;2023-06-22T12:01:27;96848.00;;;34.77;40.72
20930;BME280;21895;47.072;15.132;2023-06-22T12:03:54;96841.00;;;34.99;39.33
20930;BME280;21895;47.072;15.132;2023-06-22T12:06:21;96842.00;;;34.75;40.11
20930;BME280;21895;47.072;15.132;2023-06-22T12:08:47;96843.00;;;34.75;40.27
20930;BME280;21895;47.072;15.132;2023-06-22T12:11:14;96843.00;;;34.60;40.68
20930;BME280;21895;47.072;15.132;2023-06-22T12:13:40;96835.00;;;34.66;40.57
20930;BME280;21895;47.072;15.132;2023-06-22T12:16:07;96829.00;;;34.86;39.91
20930;BME280;21895;47.072;15.132;2023-06-22T12:18:34;96831.00;;;35.10;39.77
20930;BME280;21895;47.072;15.132;2023-06-22T12:21:00;96831.00;;;34.94;39.06
20930;BME280;21895;47.072;15.132;2023-06-22T12:23:27;96837.00;;;35.00;39.40
20930;BME280;21895;47.072;15.132;2023-06-22T12:25:54;96843.00;;;35.11;40.06
20930;BME280;21895;47.072;15.132;2023-06-22T12:28:20;96841.00;;;35.33;39.91
20930;BME280;21895;47.072;15.132;2023-06-22T12:30:47;96835.00;;;35.25;40.45
20930;BME280;21895;47.072;15.132;2023-06-22T12:33:14;96834.00;;;35.39;38.56
20930;BME280;21895;47.072;15.132;2023-06-22T12:35:40;96834.00;;;35.27;39.37
20930;BME280;21895;47.072;15.132;2023-06-22T12:38:07;96823.00;;;35.03;39.40
20930;BME280;21895;47.072;15.132;2023-06-22T12:40:34;96820.00;;;34.80;39.96
20930;BME280;21895;47.072;15.132;2023-06-22T12:43:01;96816.00;;;35.06;40.17
20930;BME280;21895;47.072;15.132;2023-06-22T12:45:28;96816.00;;;35.36;39.35
20930;BME280;21895;47.072;15.132;2023-06-22T12:47:57;96811.00;;;35.23;39.74
20930;BME280;21895;47.072;15.132;2023-06-22T12:50:24;96810.00;;;35.32;39.11
20930;BME280;21895;47.072;15.132;2023-06-22T12:52:51;96811.00;;;35.17;39.31
20930;BME280;21895;47.072;15.132;2023-06-22T12:55:18;96813.00;;;35.40;39.10